Time;durP1;ratioP1;P1;durP2;ratioP2;P2;SDS_P1;SDS_P2;PMS_P1;PMS_P2;Temp;Humidity;BMP_temperature;BMP_pressure;BME280_temperature;BME280_humidity;BME280_pressure;Samples;Min_cycle;Max_cycle;Signal;HPM_P1;HPM_P2
2024/01/18 00:01:10;;;;;;;63.60;45.90;;;;;;;0.83;100.00;96205.88;109248;1253;59252;-76
2024/01/18 00:03:44;;;;;;;68.20;48.10;;;;;;;0.88;100.00;96210.20;109293;1252;59092;-75
2024/01/18 00:06:11;;;;;;;58.00;40.60;;;;;;;0.90;100.00;96206.23;109274;1253;65796;-76
2024/01/18 00:08:37;;;;;;;66.90;45.50;;;;;;;0.91;100.00;96209.14;109480;1252;59963;-76
2024/01/18 00:11:04;;;;;;;62.60;44.00;;;;;;;0.93;100.00;96214.41;109455;1253;64785;-75
2024/01/18 00:13:31;;;;;;;64.50;46.40;;;;;;;0.96;100.00;96211.77;109265;1254;59287;-75
2024/01/18 00:15:57;;;;;;;63.00;44.30;;;;;;;0.98;100.00;96209.62;109455;1254;59087;-75
2024/01/18 00:18:24;;;;;;;68.00;47.20;;;;;;;1.05;100.00;96217.22;109473;1253;64727;-75
2024/01/18 00:20:50;;;;;;;65.80;45.50;;;;;;;1.07;100.00;96220.34;109301;1254;60125;-75
2024/01/18 00:23:17;;;;;;;62.50;45.60;;;;;;;1.07;100.00;96232.05;109442;1253;64818;-77
2024/01/18 00:25:43;;;;;;;69.90;49.60;;;;;;;1.07;100.00;96242.75;109414;1256;59227;-76
2024/01/18 00:28:10;;;;;;;87.20;63.30;;;;;;;1.06;100.00;96249.15;109465;1253;59820;-76
2024/01/18 00:30:37;;;;;;;85.00;60.80;;;;;;;1.07;100.00;96242.24;109465;1254;67020;-75
2024/01/18 00:33:04;;;;;;;78.60;57.90;;;;;;;1.09;100.00;96241.71;109282;1253;60210;-76
2024/01/18 00:35:31;;;;;;;82.00;60.20;;;;;;;1.12;100.00;96237.34;109456;1254;65441;-76
2024/01/18 00:37:57;;;;;;;81.50;57.30;;;;;;;1.13;100.00;96234.09;109463;1253;59136;-74
2024/01/18 00:40:24;;;;;;;74.50;52.70;;;;;;;1.14;100.00;96229.70;109473;1254;59181;-75
2024/01/18 00:42:51;;;;;;;76.00;53.80;;;;;;;1.13;100.00;96226.55;109493;1252;67058;-74
2024/01/18 00:45:17;;;;;;;73.30;50.10;;;;;;;1.13;100.00;96224.48;109410;1253;60055;-75
2024/01/18 00:47:44;;;;;;;71.70;50.00;;;;;;;1.15;100.00;96226.29;109466;1252;64046;-75
2024/01/18 00:50:11;;;;;;;65.10;47.70;;;;;;;1.17;100.00;96224.17;109441;1253;59012;-75
2024/01/18 00:52:37;;;;;;;66.00;46.70;;;;;;;1.21;100.00;96224.60;109443;1252;59148;-75
2024/01/18 00:55:05;;;;;;;70.80;49.60;;;;;;;1.22;100.00;96228.52;109271;1254;66053;-74
2024/01/18 00:57:33;;;;;;;70.40;49.10;;;;;;;1.22;100.00;96228.35;109487;1254;60228;-75
2024/01/18 01:00:00;;;;;;;55.70;39.60;;;;;;;1.23;100.00;96230.90;109461;1253;65541;-75
2024/01/18 01:02:26;;;;;;;39.20;28.90;;;;;;;1.28;100.00;96225.77;109458;1253;58942;-74
2024/01/18 01:04:53;;;;;;;33.90;23.60;;;;;;;1.43;100.00;96225.93;109461;1252;59134;-75
2024/01/18 01:07:19;;;;;;;17.10;12.00;;;;;;;1.64;100.00;96221.55;109425;1253;66765;-75
2024/01/18 01:09:46;;;;;;;9.20;7.00;;;;;;;2.05;100.00;96218.39;109458;1254;60088;-75
2024/01/18 01:12:12;;;;;;;7.00;5.30;;;;;;;2.52;100.00;96224.38;109452;1252;65009;-74
2024/01/18 01:14:39;;;;;;;6.60;4.60;;;;;;;2.93;100.00;96219.48;109478;1254;59023;-75
2024/01/18 01:17:05;;;;;;;7.20;5.00;;;;;;;3.29;100.00;96219.73;109486;1252;58835;-75
2024/01/18 01:19:32;;;;;;;7.90;5.20;;;;;;;3.58;100.00;96219.66;108369;1254;1002441;-75
2024/01/18 01:21:59;;;;;;;6.10;4.60;;;;;;;3.78;100.00;96221.52;109476;1253;59685;-76
2024/01/18 01:24:25;;;;;;;5.80;4.50;;;;;;;3.97;100.00;96216.42;109424;1254;65240;-76
2024/01/18 01:26:52;;;;;;;6.80;4.40;;;;;;;4.16;100.00;96214.25;109406;1253;59361;-76
2024/01/18 01:29:18;;;;;;;6.00;4.40;;;;;;;4.34;100.00;96213.05;109490;1252;59023;-76
2024/01/18 01:31:45;;;;;;;6.70;4.10;;;;;;;4.51;100.00;96212.48;109492;1253;67197;-75
2024/01/18 01:34:12;;;;;;;5.00;3.40;;;;;;;4.71;100.00;96208.95;109454;1253;61088;-76
2024/01/18 01:36:38;;;;;;;4.90;3.30;;;;;;;4.88;100.00;96204.12;109276;1253;63743;-76
2024/01/18 01:39:06;;;;;;;4.40;3.60;;;;;;;4.98;100.00;96195.09;109298;1252;59096;-74
2024/01/18 01:41:33;;;;;;;4.20;3.00;;;;;;;5.05;100.00;96195.68;109450;1252;59844;-75
2024/01/18 01:44:00;;;;;;;3.40;3.10;;;;;;;5.16;100.00;96188.58;109426;1254;67227;-74
2024/01/18 01:46:28;;;;;;;3.40;2.90;;;;;;;5.25;100.00;96189.80;109483;1252;60199;-75
2024/01/18 01:49:00;;;;;;;5.20;3.40;;;;;;;5.33;100.00;96184.70;109263;1253;62747;-76
2024/01/18 01:51:32;;;;;;;4.20;3.10;;;;;;;5.42;100.00;96181.68;109430;1252;58913;-75
2024/01/18 01:53:59;;;;;;;4.00;3.10;;;;;;;5.48;100.00;96175.11;109373;1253;59410;-76
2024/01/18 01:56:26;;;;;;;4.00;3.60;;;;;;;5.55;100.00;96176.60;109423;1252;67086;-76
2024/01/18 01:58:52;;;;;;;4.70;3.50;;;;;;;5.67;100.00;96176.91;109302;1257;61115;-75
2024/01/18 02:01:20;;;;;;;4.00;3.30;;;;;;;5.70;100.00;96170.23;109460;1252;64064;-75
2024/01/18 02:03:46;;;;;;;3.30;3.00;;;;;;;5.70;100.00;96164.20;109250;1253;59357;-75
2024/01/18 02:06:15;;;;;;;3.70;3.00;;;;;;;5.71;100.00;96166.39;109445;1252;59027;-75
2024/01/18 02:08:44;;;;;;;3.30;2.70;;;;;;;5.73;100.00;96166.98;109426;1253;66069;-75
2024/01/18 02:11:12;;;;;;;3.70;3.40;;;;;;;5.73;100.00;96163.95;109427;1253;61484;-75
2024/01/18 02:13:39;;;;;;;3.40;3.10;;;;;;;5.73;100.00;96157.46;109438;1253;64161;-76
2024/01/18 02:16:06;;;;;;;4.30;3.20;;;;;;;5.73;100.00;96152.85;109421;1252;58985;-75
2024/01/18 02:18:35;;;;;;;3.60;3.30;;;;;;;5.76;100.00;96151.03;109336;1252;59227;-74
2024/01/18 02:21:04;;;;;;;5.40;3.10;;;;;;;5.80;100.00;96151.55;109405;1253;76435;-75
2024/01/18 02:23:32;;;;;;;4.00;3.30;;;;;;;5.83;100.00;96154.73;109458;1252;61025;-74
2024/01/18 02:25:59;;;;;;;3.50;3.00;;;;;;;5.85;100.00;96151.90;109405;1253;64067;-75
2024/01/18 02:28:25;;;;;;;4.10;2.80;;;;;;;5.88;100.00;96151.17;109484;1252;59328;-75
2024/01/18 02:30:52;;;;;;;3.50;2.60;;;;;;;5.89;100.00;96149.97;109447;1252;58925;-75
2024/01/18 02:33:18;;;;;;;2.90;2.20;;;;;;;5.88;100.00;96150.21;109374;1252;64830;-75
2024/01/18 02:35:45;;;;;;;3.40;2.30;;;;;;;5.85;100.00;96148.92;109473;1253;61081;-74
2024/01/18 02:38:12;;;;;;;3.00;2.20;;;;;;;5.84;100.00;96150.42;109399;1252;65344;-76
2024/01/18 02:40:38;;;;;;;2.60;2.30;;;;;;;5.88;100.00;96146.19;109413;1252;59275;-75
2024/01/18 02:43:05;;;;;;;3.40;2.90;;;;;;;5.95;100.00;96147.14;109254;1253;59153;-75
2024/01/18 02:45:34;;;;;;;3.20;2.60;;;;;;;6.00;100.00;96150.74;109350;1253;67328;-75
2024/01/18 02:48:01;;;;;;;3.70;2.70;;;;;;;6.09;100.00;96152.55;109322;1253;61008;-76
2024/01/18 02:50:27;;;;;;;2.30;2.10;;;;;;;6.19;100.00;96148.59;109433;1253;63750;-74
2024/01/18 02:52:54;;;;;;;3.50;2.80;;;;;;;6.28;100.00;96146.35;109444;1253;59161;-76
2024/01/18 02:55:20;;;;;;;2.60;2.40;;;;;;;6.37;100.00;96149.16;109417;1252;59035;-75
2024/01/18 02:57:47;;;;;;;2.50;2.20;;;;;;;6.44;100.00;96142.91;109456;1252;67304;-75
2024/01/18 03:00:32;;;;;;;2.90;2.70;;;;;;;6.52;100.00;96140.02;109421;1253;61089;-75
2024/01/18 03:02:59;;;;;;;2.80;2.50;;;;;;;6.55;100.00;96134.38;109410;1252;64029;-76
2024/01/18 03:05:25;;;;;;;2.80;2.30;;;;;;;6.55;100.00;96131.38;109445;1252;58969;-76
2024/01/18 03:07:52;;;;;;;3.50;2.60;;;;;;;6.59;100.00;96133.80;109422;1252;59215;-75
2024/01/18 03:10:18;;;;;;;2.80;2.60;;;;;;;6.62;100.00;96132.49;109418;1252;67173;-75
2024/01/18 03:12:45;;;;;;;2.70;2.50;;;;;;;6.62;100.00;96131.31;109467;1252;60334;-76
2024/01/18 03:15:11;;;;;;;3.40;2.60;;;;;;;6.60;100.00;96134.06;109423;1252;65005;-76
2024/01/18 03:17:38;;;;;;;3.10;2.80;;;;;;;6.54;100.00;96136.48;109430;1253;59419;-76
2024/01/18 03:20:07;;;;;;;3.80;3.50;;;;;;;6.45;100.00;96137.53;109463;1252;59009;-75
2024/01/18 03:22:34;;;;;;;4.10;3.40;;;;;;;6.33;100.00;96135.95;109334;1253;67064;-76
2024/01/18 03:25:01;;;;;;;4.90;3.80;;;;;;;6.23;100.00;96141.55;109305;1253;61050;-76
2024/01/18 03:27:28;;;;;;;3.90;3.00;;;;;;;6.13;100.00;96143.04;109413;1252;64068;-75
2024/01/18 03:29:55;;;;;;;3.30;3.00;;;;;;;6.05;100.00;96142.88;109465;1252;58960;-75
2024/01/18 03:32:22;;;;;;;4.30;3.60;;;;;;;6.00;100.00;96141.59;109481;1252;58954;-75
2024/01/18 03:34:49;;;;;;;5.50;4.60;;;;;;;5.96;100.00;96142.17;109419;1253;66028;-76
2024/01/18 03:37:16;;;;;;;5.90;4.50;;;;;;;5.92;100.00;96141.14;109456;1252;60062;-75
2024/01/18 03:39:43;;;;;;;5.00;4.50;;;;;;;5.89;100.00;96145.23;109381;1252;65422;-74
2024/01/18 03:42:10;;;;;;;3.80;3.40;;;;;;;5.87;100.00;96143.13;109455;1252;59015;-75
2024/01/18 03:44:36;;;;;;;3.80;3.50;;;;;;;5.86;100.00;96140.58;109405;1252;58950;-75
2024/01/18 03:47:04;;;;;;;3.40;3.10;;;;;;;5.86;100.00;96141.93;109430;1252;67217;-76
2024/01/18 03:49:30;;;;;;;3.50;3.20;;;;;;;5.85;100.00;96144.52;109424;1252;60994;-75
2024/01/18 03:51:57;;;;;;;4.20;3.80;;;;;;;5.85;100.00;96147.55;109436;1252;64023;-75
2024/01/18 03:54:24;;;;;;;4.20;3.70;;;;;;;5.83;100.00;96145.60;109388;1252;59040;-75
2024/01/18 03:56:50;;;;;;;3.90;3.40;;;;;;;5.82;100.00;96152.05;109432;1252;59068;-75
2024/01/18 03:59:17;;;;;;;4.40;4.00;;;;;;;5.82;100.00;96155.08;109411;1252;67219;-76
2024/01/18 04:01:43;;;;;;;4.30;3.90;;;;;;;5.81;100.00;96163.40;109296;1253;61018;-76
2024/01/18 04:04:10;;;;;;;4.30;3.90;;;;;;;5.82;100.00;96162.81;109420;1252;64559;-76
2024/01/18 04:06:36;;;;;;;4.70;4.20;;;;;;;5.83;100.00;96162.40;109452;1252;59225;-76
2024/01/18 04:09:05;;;;;;;4.70;4.20;;;;;;;5.81;100.00;96166.40;109416;1252;59194;-76
2024/01/18 04:11:32;;;;;;;7.40;4.50;;;;;;;5.78;100.00;96171.82;109386;1252;67172;-76
2024/01/18 04:13:58;;;;;;;5.90;4.50;;;;;;;5.74;100.00;96175.85;109426;1252;60054;-75
2024/01/18 04:16:25;;;;;;;5.90;5.00;;;;;;;5.70;100.00;96179.08;109416;1252;65294;-75
2024/01/18 04:18:52;;;;;;;7.60;5.50;;;;;;;5.67;100.00;96180.17;109268;1256;58912;-76
2024/01/18 04:21:18;;;;;;;8.00;5.90;;;;;;;5.65;100.00;96175.77;109455;1252;58909;-75
2024/01/18 04:23:45;;;;;;;6.50;5.70;;;;;;;5.63;100.00;96175.62;109421;1252;67078;-75
2024/01/18 04:26:11;;;;;;;7.60;6.80;;;;;;;5.61;100.00;96179.04;109425;1252;61507;-77
2024/01/18 04:28:38;;;;;;;10.30;7.00;;;;;;;5.58;100.00;96184.03;109409;1252;65171;-75
2024/01/18 04:31:04;;;;;;;8.70;7.00;;;;;;;5.57;100.00;96187.11;109427;1253;59108;-75
2024/01/18 04:33:31;;;;;;;8.10;6.60;;;;;;;5.57;100.00;96189.58;109409;1252;58928;-76
2024/01/18 04:35:57;;;;;;;9.20;8.10;;;;;;;5.56;100.00;96194.61;109403;1252;65971;-75
2024/01/18 04:38:24;;;;;;;7.90;7.10;;;;;;;5.56;100.00;96194.99;109445;1252;61708;-75
2024/01/18 04:40:51;;;;;;;8.80;6.70;;;;;;;5.55;100.00;96202.48;109258;1253;65042;-75
2024/01/18 04:43:17;;;;;;;8.70;5.70;;;;;;;5.53;100.00;96206.01;109445;1252;59174;-77
2024/01/18 04:45:44;;;;;;;6.70;5.90;;;;;;;5.50;100.00;96205.54;109448;1252;59063;-76
2024/01/18 04:48:11;;;;;;;8.10;6.90;;;;;;;5.48;100.00;96206.94;109447;1252;65961;-76
2024/01/18 04:50:37;;;;;;;9.40;7.90;;;;;;;5.46;100.00;96200.23;109427;1252;61069;-75
2024/01/18 04:53:04;;;;;;;10.70;8.70;;;;;;;5.44;100.00;96198.52;109429;1251;65125;-76
2024/01/18 04:55:31;;;;;;;10.90;9.30;;;;;;;5.39;100.00;96196.48;109409;1253;59020;-75
2024/01/18 04:57:58;;;;;;;12.80;10.60;;;;;;;5.36;100.00;96202.73;109472;1252;59056;-76
2024/01/18 05:00:25;;;;;;;10.80;9.40;;;;;;;5.34;100.00;96205.95;109461;1252;66999;-75
2024/01/18 05:02:51;;;;;;;12.60;9.90;;;;;;;5.32;100.00;96212.11;109459;1252;59792;-74
2024/01/18 05:05:19;;;;;;;11.00;9.90;;;;;;;5.32;100.00;96215.86;109439;1252;62855;-76
2024/01/18 05:07:46;;;;;;;11.30;10.20;;;;;;;5.31;100.00;96217.70;109386;1253;58990;-76
2024/01/18 05:10:12;;;;;;;12.00;10.80;;;;;;;5.30;100.00;96220.43;108556;1251;1002489;-77
2024/01/18 05:12:40;;;;;;;11.50;10.30;;;;;;;5.28;100.00;96220.89;109459;1252;67170;-76
2024/01/18 05:15:11;;;;;;;12.50;11.20;;;;;;;5.27;100.00;96223.25;109475;1252;59754;-75
2024/01/18 05:17:39;;;;;;;14.30;12.50;;;;;;;5.25;100.00;96219.52;109181;1252;65553;-75
2024/01/18 05:20:07;;;;;;;17.50;15.30;;;;;;;5.23;100.00;96218.14;109444;1252;59277;-75
2024/01/18 05:22:35;;;;;;;16.20;14.60;;;;;;;5.20;100.00;96219.36;109496;1252;58964;-76
2024/01/18 05:25:02;;;;;;;22.70;17.60;;;;;;;5.14;100.00;96224.13;109445;1252;64801;-76
2024/01/18 05:27:32;;;;;;;26.80;20.90;;;;;;;5.09;100.00;96230.60;109341;1252;60063;-76
2024/01/18 05:29:59;;;;;;;24.10;18.10;;;;;;;5.09;100.00;96231.80;109427;1252;65136;-75
2024/01/18 05:32:26;;;;;;;22.50;17.70;;;;;;;5.10;100.00;96232.28;109296;1253;58988;-76
2024/01/18 05:34:52;;;;;;;24.60;19.80;;;;;;;5.09;100.00;96234.84;109385;1252;58937;-75
2024/01/18 05:37:22;;;;;;;16.90;12.80;;;;;;;5.08;100.00;96236.30;109447;1252;66990;-75
2024/01/18 05:39:53;;;;;;;19.10;15.50;;;;;;;5.09;100.00;96235.79;109105;1252;60312;-76
2024/01/18 05:42:20;;;;;;;20.70;18.00;;;;;;;5.11;100.00;96234.95;109429;1253;65075;-76
2024/01/18 05:44:47;;;;;;;16.20;12.20;;;;;;;5.11;100.00;96236.70;109411;1252;58952;-75
2024/01/18 05:47:14;;;;;;;14.70;11.70;;;;;;;5.11;100.00;96234.77;109204;1254;59465;-76
2024/01/18 05:49:41;;;;;;;18.50;12.90;;;;;;;5.13;100.00;96234.56;109446;1252;67047;-75
2024/01/18 05:52:08;;;;;;;16.90;13.20;;;;;;;5.15;100.00;96234.41;109456;1252;61004;-76
2024/01/18 05:54:34;;;;;;;17.10;14.30;;;;;;;5.16;100.00;96238.20;109415;1252;65223;-76
2024/01/18 05:57:02;;;;;;;16.00;14.20;;;;;;;5.17;100.00;96244.77;109099;1253;59028;-75
2024/01/18 05:59:28;;;;;;;18.90;16.30;;;;;;;5.18;100.00;96245.95;109308;1251;58940;-76
2024/01/18 06:01:55;;;;;;;18.70;16.70;;;;;;;5.17;100.00;96252.20;109447;1252;65675;-75
2024/01/18 06:04:24;;;;;;;23.50;17.40;;;;;;;5.10;100.00;96254.03;109476;1252;60036;-76
2024/01/18 06:06:51;;;;;;;23.80;17.80;;;;;;;5.03;100.00;96258.52;109426;1252;62792;-76
2024/01/18 06:09:18;;;;;;;21.90;18.60;;;;;;;5.00;100.00;96262.98;109439;1252;58955;-76
2024/01/18 06:11:45;;;;;;;22.40;19.90;;;;;;;5.00;100.00;96259.87;109192;1252;59123;-76
2024/01/18 06:14:12;;;;;;;24.60;19.70;;;;;;;4.96;100.00;96263.52;109333;1252;65895;-76
2024/01/18 06:16:39;;;;;;;26.40;22.30;;;;;;;4.89;100.00;96267.70;109456;1252;60104;-76
2024/01/18 06:19:06;;;;;;;24.70;20.90;;;;;;;4.86;100.00;96269.51;109434;1251;65525;-76
2024/01/18 06:21:33;;;;;;;24.30;21.00;;;;;;;4.87;100.00;96276.70;109425;1252;59315;-76
2024/01/18 06:23:59;;;;;;;30.70;24.00;;;;;;;4.87;100.00;96280.91;109486;1252;59042;-76
2024/01/18 06:26:26;;;;;;;25.50;22.60;;;;;;;4.87;100.00;96285.48;109453;1252;66036;-76
2024/01/18 06:28:53;;;;;;;26.20;21.00;;;;;;;4.88;100.00;96289.23;109472;1252;59726;-74
2024/01/18 06:31:26;;;;;;;33.80;24.80;;;;;;;4.86;100.00;96299.11;109297;1253;64088;-76
2024/01/18 06:33:53;;;;;;;32.70;24.50;;;;;;;4.87;100.00;96302.88;109424;1252;58933;-75
2024/01/18 06:36:22;;;;;;;38.20;28.90;;;;;;;4.91;100.00;96303.41;109354;1252;58988;-76
2024/01/18 06:38:51;;;;;;;45.00;29.20;;;;;;;4.95;100.00;96306.77;109249;1253;66699;-77
2024/01/18 06:41:19;;;;;;;33.30;26.70;;;;;;;4.99;100.00;96308.83;109499;1252;60042;-76
2024/01/18 06:43:46;;;;;;;33.40;28.30;;;;;;;5.06;100.00;96310.69;109485;1252;63948;-75
2024/01/18 06:46:17;;;;;;;34.80;30.10;;;;;;;5.12;100.00;96312.98;109399;1252;59041;-76
2024/01/18 06:48:52;;;;;;;36.30;31.50;;;;;;;5.14;100.00;96313.20;109411;1252;59286;-76
2024/01/18 06:51:20;;;;;;;35.60;30.50;;;;;;;5.13;100.00;96311.67;109333;1253;67035;-76
2024/01/18 06:53:47;;;;;;;36.00;30.50;;;;;;;5.14;100.00;96309.91;109182;1253;60010;-76
2024/01/18 06:56:14;;;;;;;34.00;30.10;;;;;;;5.13;100.00;96306.76;109518;1251;64048;-76
2024/01/18 06:58:41;;;;;;;32.90;29.30;;;;;;;5.12;100.00;96306.69;109526;1251;59082;-76
2024/01/18 07:01:09;;;;;;;32.40;28.40;;;;;;;5.06;100.00;96307.73;109492;1251;59275;-75
2024/01/18 07:03:36;;;;;;;35.00;30.40;;;;;;;4.99;100.00;96310.41;109558;1250;67165;-76
2024/01/18 07:06:04;;;;;;;36.50;27.10;;;;;;;4.93;100.00;96314.27;109465;1251;59744;-76
2024/01/18 07:08:31;;;;;;;35.60;29.50;;;;;;;4.91;100.00;96315.55;109544;1251;64699;-76
2024/01/18 07:10:57;;;;;;;38.40;31.40;;;;;;;4.91;100.00;96319.77;109555;1251;59225;-76
2024/01/18 07:13:26;;;;;;;35.70;30.50;;;;;;;4.93;100.00;96321.70;109402;1251;59111;-76
2024/01/18 07:15:54;;;;;;;36.70;31.30;;;;;;;4.95;100.00;96325.59;109511;1251;64751;-75
2024/01/18 07:18:20;;;;;;;32.50;26.40;;;;;;;4.93;100.00;96326.61;109541;1251;61104;-75
2024/01/18 07:20:47;;;;;;;31.80;28.30;;;;;;;4.93;100.00;96328.00;109555;1251;65559;-75
2024/01/18 07:23:13;;;;;;;32.90;28.20;;;;;;;4.96;100.00;96332.51;109548;1251;59041;-76
2024/01/18 07:25:41;;;;;;;27.70;23.60;;;;;;;4.97;100.00;96337.20;109534;1251;58897;-75
2024/01/18 07:28:07;;;;;;;26.00;23.20;;;;;;;4.98;100.00;96342.73;109461;1251;67067;-76
2024/01/18 07:30:34;;;;;;;30.70;26.90;;;;;;;5.00;100.00;96341.64;109556;1251;59940;-76
2024/01/18 07:33:01;;;;;;;29.50;25.80;;;;;;;5.03;100.00;96340.34;109528;1251;63888;-76
2024/01/18 07:35:27;;;;;;;31.50;28.10;;;;;;;5.04;100.00;96338.27;109517;1251;58996;-76
2024/01/18 07:37:54;;;;;;;31.10;26.80;;;;;;;5.08;100.00;96343.99;109559;1250;59190;-76
2024/01/18 07:40:20;;;;;;;45.70;38.10;;;;;;;5.11;100.00;96345.98;109330;1251;66969;-76
2024/01/18 07:42:47;;;;;;;54.60;41.70;;;;;;;5.15;100.00;96347.05;109553;1251;61062;-76
2024/01/18 07:45:14;;;;;;;51.40;42.90;;;;;;;5.18;100.00;96356.81;109544;1251;66048;-77
2024/01/18 07:47:42;;;;;;;43.40;37.40;;;;;;;5.17;100.00;96353.00;109199;1251;59104;-76
2024/01/18 07:50:09;;;;;;;37.30;32.30;;;;;;;5.19;100.00;96355.85;109548;1252;59079;-76
2024/01/18 07:52:37;;;;;;;36.30;32.40;;;;;;;5.17;100.00;96357.04;109558;1250;67177;-76
2024/01/18 07:55:07;;;;;;;31.20;27.80;;;;;;;5.19;100.00;96360.44;109486;1251;61050;-75
2024/01/18 07:57:34;;;;;;;31.00;26.40;;;;;;;5.22;100.00;96364.02;109542;1251;63766;-76
2024/01/18 08:00:03;;;;;;;34.60;29.20;;;;;;;5.24;100.00;96365.77;109501;1251;58969;-77
2024/01/18 08:02:29;;;;;;;31.70;26.60;;;;;;;5.26;100.00;96370.73;109564;1251;59020;-76
2024/01/18 08:04:57;;;;;;;27.60;24.40;;;;;;;5.26;100.00;96376.32;109577;1250;66050;-77
2024/01/18 08:07:23;;;;;;;28.90;25.10;;;;;;;5.26;100.00;96378.48;109510;1251;60058;-75
2024/01/18 08:09:50;;;;;;;25.70;23.00;;;;;;;5.26;100.00;96389.05;109576;1251;63992;-77
2024/01/18 08:12:16;;;;;;;28.70;22.90;;;;;;;5.25;100.00;96399.14;109547;1251;59021;-76
2024/01/18 08:14:43;;;;;;;28.60;23.20;;;;;;;5.23;100.00;96404.79;109479;1251;59233;-76
2024/01/18 08:17:10;;;;;;;29.10;24.40;;;;;;;5.22;100.00;96408.19;109559;1251;64848;-77
2024/01/18 08:19:39;;;;;;;27.90;21.90;;;;;;;5.21;100.00;96415.49;109548;1251;59825;-77
2024/01/18 08:22:06;;;;;;;29.90;24.70;;;;;;;5.20;100.00;96417.21;109521;1251;63833;-76
2024/01/18 08:24:33;;;;;;;27.30;22.40;;;;;;;5.18;100.00;96417.31;109497;1251;59148;-77
2024/01/18 08:27:00;;;;;;;29.30;24.40;;;;;;;5.17;100.00;96420.06;109536;1250;59106;-76
2024/01/18 08:29:27;;;;;;;30.30;24.70;;;;;;;5.18;100.00;96420.55;109607;1250;66971;-77
2024/01/18 08:31:54;;;;;;;28.60;24.30;;;;;;;5.19;100.00;96419.88;109540;1250;60989;-76
2024/01/18 08:34:21;;;;;;;25.90;23.10;;;;;;;5.22;100.00;96418.27;109567;1251;63763;-77
2024/01/18 08:36:48;;;;;;;27.00;22.00;;;;;;;5.23;100.00;96419.39;109317;1251;58959;-76
2024/01/18 08:39:15;;;;;;;24.60;20.00;;;;;;;5.25;100.00;96417.48;109550;1251;58967;-76
2024/01/18 08:41:42;;;;;;;24.00;20.80;;;;;;;5.27;100.00;96421.52;109557;1251;65814;-76
2024/01/18 08:44:09;;;;;;;20.40;17.40;;;;;;;5.30;100.00;96424.95;109522;1251;60281;-77
2024/01/18 08:46:39;;;;;;;22.40;20.00;;;;;;;5.32;100.00;96430.61;109516;1251;64006;-76
2024/01/18 08:49:07;;;;;;;21.10;18.70;;;;;;;5.33;100.00;96435.84;109492;1251;59061;-76
2024/01/18 08:51:34;;;;;;;21.50;18.00;;;;;;;5.32;100.00;96441.35;109541;1251;59097;-76
2024/01/18 08:54:01;;;;;;;21.40;19.10;;;;;;;5.32;100.00;96446.61;109550;1250;66023;-77
2024/01/18 08:56:27;;;;;;;24.90;20.70;;;;;;;5.31;100.00;96452.53;109578;1251;61453;-77
2024/01/18 08:58:54;;;;;;;25.00;21.10;;;;;;;5.29;100.00;96459.88;109561;1251;64201;-76
2024/01/18 09:01:20;;;;;;;25.00;21.00;;;;;;;5.28;100.00;96461.20;109521;1251;59062;-77
2024/01/18 09:03:47;;;;;;;25.40;20.40;;;;;;;5.27;100.00;96464.30;109461;1251;58919;-77
2024/01/18 09:06:14;;;;;;;24.70;21.30;;;;;;;5.25;100.00;96469.14;109569;1250;65996;-78
2024/01/18 09:08:40;;;;;;;24.00;21.20;;;;;;;5.22;100.00;96477.53;109535;1251;61061;-77
2024/01/18 09:11:07;;;;;;;24.10;20.50;;;;;;;5.19;100.00;96488.21;109545;1251;65018;-76
2024/01/18 09:13:33;;;;;;;23.20;20.60;;;;;;;5.16;100.00;96495.36;109549;1251;59028;-77
2024/01/18 09:16:00;;;;;;;26.10;20.00;;;;;;;5.13;100.00;96500.35;109600;1251;59020;-76
2024/01/18 09:18:26;;;;;;;27.10;21.70;;;;;;;5.10;100.00;96502.17;109501;1250;66884;-76
2024/01/18 09:20:54;;;;;;;24.60;21.30;;;;;;;5.07;100.00;96507.33;109509;1251;59862;-77
2024/01/18 09:23:21;;;;;;;25.70;22.80;;;;;;;5.04;100.00;96507.92;109542;1251;63817;-76
2024/01/18 09:25:48;;;;;;;25.60;22.30;;;;;;;5.00;100.00;96513.75;109531;1251;59051;-77
2024/01/18 09:28:15;;;;;;;29.20;23.10;;;;;;;4.96;100.00;96513.05;109570;1251;58869;-76
2024/01/18 09:30:41;;;;;;;30.10;24.30;;;;;;;4.92;100.00;96522.73;109516;1250;67263;-76
2024/01/18 09:33:08;;;;;;;28.50;24.00;;;;;;;4.86;100.00;96524.96;109526;1251;61253;-76
2024/01/18 09:35:36;;;;;;;28.50;24.40;;;;;;;4.81;100.00;96532.60;109523;1251;64988;-76
2024/01/18 09:38:03;;;;;;;32.70;28.10;;;;;;;4.77;100.00;96531.48;109508;1251;58987;-76
2024/01/18 09:40:30;;;;;;;35.80;29.30;;;;;;;4.75;100.00;96533.05;109551;1251;59230;-76
2024/01/18 09:43:01;;;;;;;33.20;27.60;;;;;;;4.74;100.00;96537.77;109539;1251;66962;-76
2024/01/18 09:45:32;;;;;;;34.40;29.60;;;;;;;4.71;100.00;96545.05;109523;1251;60261;-77
2024/01/18 09:47:59;;;;;;;32.40;27.50;;;;;;;4.69;100.00;96542.95;109468;1251;64103;-77
2024/01/18 09:50:27;;;;;;;34.90;28.00;;;;;;;4.62;100.00;96548.41;109547;1251;58991;-76
2024/01/18 09:52:54;;;;;;;36.50;26.30;;;;;;;4.55;100.00;96546.14;109581;1251;58990;-78
2024/01/18 09:55:20;;;;;;;33.40;27.60;;;;;;;4.48;100.00;96543.58;109511;1251;65964;-77
2024/01/18 09:57:48;;;;;;;30.50;25.10;;;;;;;4.41;100.00;96543.04;109577;1251;60272;-76
2024/01/18 10:00:19;;;;;;;32.70;27.30;;;;;;;4.36;100.00;96551.89;109449;1251;109116;-76
2024/01/18 10:02:46;;;;;;;34.50;26.80;;;;;;;4.33;100.00;96551.79;109544;1251;59133;-76
2024/01/18 10:05:13;;;;;;;31.90;27.70;;;;;;;4.29;100.00;96554.05;109541;1251;59201;-76
2024/01/18 10:07:40;;;;;;;30.20;26.70;;;;;;;4.26;100.00;96552.75;109539;1251;67116;-76
2024/01/18 10:10:08;;;;;;;36.90;29.10;;;;;;;4.21;100.00;96557.70;109472;1250;60189;-77
2024/01/18 10:12:34;;;;;;;31.50;25.90;;;;;;;4.17;100.00;96556.07;109586;1251;65286;-76
2024/01/18 10:15:01;;;;;;;32.50;26.90;;;;;;;4.14;100.00;96558.45;109488;1251;59044;-75
2024/01/18 10:17:28;;;;;;;31.00;27.70;;;;;;;4.11;100.00;96561.17;109468;1257;58981;-76
2024/01/18 10:19:56;;;;;;;30.40;25.40;;;;;;;4.07;100.00;96562.48;109515;1250;65973;-76
2024/01/18 10:22:23;;;;;;;34.30;28.10;;;;;;;4.05;100.00;96564.41;109492;1251;60967;-75
2024/01/18 10:24:50;;;;;;;35.00;29.60;;;;;;;4.04;100.00;96565.42;109468;1251;62807;-76
2024/01/18 10:27:21;;;;;;;37.40;31.30;;;;;;;4.02;100.00;96569.80;109504;1251;59292;-75
2024/01/18 10:29:51;;;;;;;39.60;31.90;;;;;;;3.98;100.00;96571.45;109539;1251;59062;-76
2024/01/18 10:32:18;;;;;;;34.60;28.80;;;;;;;3.94;100.00;96571.64;109533;1251;67119;-76
2024/01/18 10:34:46;;;;;;;36.50;30.30;;;;;;;3.87;100.00;96574.27;109567;1251;61177;-76
2024/01/18 10:37:15;;;;;;;39.50;33.30;;;;;;;3.80;100.00;96575.89;109087;1252;65143;-76
2024/01/18 10:39:45;;;;;;;38.60;31.00;;;;;;;3.78;100.00;96577.48;109515;1251;58972;-76
2024/01/18 10:42:13;;;;;;;37.90;31.80;;;;;;;3.76;100.00;96583.59;109543;1251;58972;-75
2024/01/18 10:44:41;;;;;;;33.80;27.40;;;;;;;3.77;100.00;96587.75;109564;1250;66135;-76
2024/01/18 10:47:12;;;;;;;38.10;29.80;;;;;;;3.76;100.00;96590.76;109518;1253;59062;-76
2024/01/18 10:49:40;;;;;;;34.70;28.40;;;;;;;3.76;100.00;96586.40;109480;1252;65054;-76
2024/01/18 10:52:09;;;;;;;37.60;29.60;;;;;;;3.72;100.00;96591.42;109465;1252;59044;-76
2024/01/18 10:54:37;;;;;;;33.50;27.00;;;;;;;3.69;100.00;96591.64;107952;1252;1002497;-77
2024/01/18 10:57:04;;;;;;;31.40;25.60;;;;;;;3.66;100.00;96587.14;109465;1254;66854;-76
2024/01/18 10:59:31;;;;;;;33.90;26.50;;;;;;;3.61;100.00;96590.23;108718;1251;1002248;-77
2024/01/18 11:01:59;;;;;;;30.30;25.20;;;;;;;3.58;100.00;96587.83;109467;1252;63727;-76
2024/01/18 11:04:27;;;;;;;30.80;25.70;;;;;;;3.57;100.00;96585.96;109425;1252;59285;-76
2024/01/18 11:06:55;;;;;;;34.90;30.30;;;;;;;3.55;100.00;96589.83;109358;1257;59056;-76
2024/01/18 11:09:26;;;;;;;30.60;26.80;;;;;;;3.53;100.00;96589.21;109424;1252;64818;-75
2024/01/18 11:11:56;;;;;;;33.70;28.80;;;;;;;3.52;100.00;96584.54;109369;1252;61041;-74
2024/01/18 11:14:26;;;;;;;34.60;27.20;;;;;;;3.55;100.00;96581.55;109444;1253;63722;-75